KPVU

Provo Municipal Airport

Provo, Utah, USA
KPVU 231120Z 2312/2412 VRB05KT P6SM FEW120 FEW200 FM231900 29010KT P6SM SCT120 SCT150 FM240200 16007KT P6SM FEW150
Issued Valid From Valid To
Jul-23 @ 11:20 UTC
(2 hours ago)
Jul-23 @ 12:00 UTC
(2 hours ago)
Jul-24 @ 12:00 UTC
(in 22 hours)
Jul-23 @ 12:00 to Jul-23 @ 19:00
KPVU 231120Z 2312/2412 VRB05KT P6SM FEW120 FEW200
Wind Visibility Clouds
Variable at 5 knots Greater than 6 miles
  • Few at 12,000' AGL
  • Few at 20,000' AGL
From Jul-23 @ 19:00 to Jul-24 @ 02:00
FM231900 29010KT P6SM SCT120 SCT150
Wind Visibility Clouds
290° at 10 knots Greater than 6 miles
  • Scattered at 12,000' AGL
  • Scattered at 15,000' AGL
From Jul-24 @ 02:00 to Jul-24 @ 12:00
FM240200 16007KT P6SM FEW150
Wind Visibility Clouds
160° at 7 knots Greater than 6 miles
  • Few at 15,000' AGL
KPVU 231120Z 2312/2412 VRB05KT P6SM FEW120 FEW200 FM231900 29010KT P6SM SCT120 SCT150 FM240200 16007KT P6SM FEW150
Issued Jul-23 @ 11:20 UTC
(2 hours ago)
Valid From Jul-23 @ 12:00 UTC
(2 hours ago)
Valid To Jul-24 @ 12:00 UTC
(in 22 hours)
Jul-23 @ 12:00 - Jul-23 @ 19:00
Wind Visibility
Variable at 5 knots Greater than 6 miles
Clouds
  • Few at 12,000' AGL
  • Few at 20,000' AGL
From Jul-23 @ 19:00 - Jul-24 @ 02:00
Wind Visibility
290° at 10 knots Greater than 6 miles
Clouds
  • Scattered at 12,000' AGL
  • Scattered at 15,000' AGL
From Jul-24 @ 02:00 - Jul-24 @ 12:00
Wind Visibility
160° at 7 knots Greater than 6 miles
Clouds
  • Few at 15,000' AGL